Time;durP1;ratioP1;P1;durP2;ratioP2;P2;SDS_P1;SDS_P2;PMS_P1;PMS_P2;Temp;Humidity;BMP_temperature;BMP_pressure;BME280_temperature;BME280_humidity;BME280_pressure;Samples;Min_cycle;Max_cycle;Signal;HPM_P1;HPM_P2
2024/02/19 00:01:29;;;;;;;2.80;1.90;;;6.80;99.90;;;;;;4985516;28;20539;-60
2024/02/19 00:03:55;;;;;;;3.73;2.00;;;6.80;99.90;;;;;;4986077;28;20447;-61
2024/02/19 00:06:22;;;;;;;2.00;1.80;;;6.80;99.90;;;;;;4990629;28;20440;-60
2024/02/19 00:08:48;;;;;;;2.00;1.40;;;6.80;99.90;;;;;;4984538;28;20190;-60
2024/02/19 00:11:14;;;;;;;1.57;1.47;;;6.70;99.90;;;;;;4990074;28;20429;-60
2024/02/19 00:13:40;;;;;;;1.80;1.60;;;6.80;99.90;;;;;;4989715;28;20668;-60
2024/02/19 00:16:06;;;;;;;4.70;1.80;;;6.70;99.90;;;;;;4989256;28;20471;-60
2024/02/19 00:18:32;;;;;;;1.60;1.50;;;6.70;99.90;;;;;;4985804;28;20182;-60
2024/02/19 00:20:59;;;;;;;2.43;2.27;;;6.70;99.90;;;;;;4982149;28;20459;-60
2024/02/19 00:23:25;;;;;;;3.97;1.40;;;6.70;99.90;;;;;;4995908;28;20169;-61
2024/02/19 00:25:51;;;;;;;1.70;1.60;;;6.70;99.90;;;;;;4987484;28;20500;-61
2024/02/19 00:28:16;;;;;;;2.40;1.30;;;6.70;99.90;;;;;;4989150;28;20512;-60
2024/02/19 00:30:42;;;;;;;1.73;1.63;;;6.70;99.90;;;;;;4991336;28;20696;-61
2024/02/19 00:33:08;;;;;;;2.07;1.83;;;6.70;99.90;;;;;;4991071;28;20192;-60
2024/02/19 00:35:34;;;;;;;2.00;1.80;;;6.70;99.90;;;;;;4995422;28;20227;-60
2024/02/19 00:37:59;;;;;;;3.27;1.80;;;6.70;99.90;;;;;;4987123;28;20432;-61
2024/02/19 00:40:25;;;;;;;1.80;1.70;;;6.70;99.90;;;;;;4996441;28;20189;-60
2024/02/19 00:42:51;;;;;;;1.80;1.70;;;6.70;99.90;;;;;;4991466;28;20204;-61
2024/02/19 00:45:17;;;;;;;2.13;1.70;;;6.70;99.90;;;;;;4993564;28;20197;-59
2024/02/19 00:47:42;;;;;;;1.70;1.60;;;6.70;99.90;;;;;;4988629;28;20169;-61
2024/02/19 00:50:09;;;;;;;1.80;1.70;;;6.70;99.90;;;;;;4990741;28;20427;-60
2024/02/19 00:52:37;;;;;;;2.07;1.87;;;6.70;99.90;;;;;;4993501;28;20419;-61
2024/02/19 00:55:02;;;;;;;1.70;1.60;;;6.70;99.90;;;;;;4986122;28;20476;-59
2024/02/19 00:57:28;;;;;;;4.40;1.43;;;6.70;99.90;;;;;;4991045;28;20523;-59
2024/02/19 00:59:54;;;;;;;1.10;1.10;;;6.70;99.90;;;;;;4994392;28;20173;-60
2024/02/19 01:02:19;;;;;;;1.40;1.30;;;6.70;99.90;;;;;;4990458;28;20235;-60
2024/02/19 01:04:46;;;;;;;1.23;1.20;;;6.70;99.90;;;;;;4993214;28;20193;-60
2024/02/19 01:07:12;;;;;;;1.73;1.63;;;6.70;99.90;;;;;;4989824;28;20193;-59
2024/02/19 01:09:38;;;;;;;1.40;1.30;;;6.70;99.90;;;;;;4992285;28;20988;-60
2024/02/19 01:12:04;;;;;;;1.30;1.20;;;6.70;99.90;;;;;;4984929;28;20181;-60
2024/02/19 01:14:29;;;;;;;1.30;1.20;;;6.70;99.90;;;;;;4990923;28;20419;-61
2024/02/19 01:16:55;;;;;;;1.10;1.10;;;6.70;99.90;;;;;;4992025;28;20929;-60
2024/02/19 01:19:21;;;;;;;1.10;1.00;;;6.70;99.90;;;;;;4993764;28;20232;-60
2024/02/19 01:21:47;;;;;;;0.90;0.90;;;6.70;99.90;;;;;;4990284;28;20197;-60
2024/02/19 01:24:13;;;;;;;2.10;1.50;;;6.70;99.90;;;;;;4990640;28;20443;-60
2024/02/19 01:26:38;;;;;;;1.20;1.10;;;6.70;99.90;;;;;;4985774;28;20436;-60
2024/02/19 01:29:04;;;;;;;1.30;1.20;;;6.70;99.90;;;;;;4990519;28;20177;-61
2024/02/19 01:31:30;;;;;;;1.17;1.07;;;6.70;99.90;;;;;;4993766;28;20659;-59
2024/02/19 01:33:55;;;;;;;1.17;1.07;;;6.70;99.90;;;;;;4988164;28;20221;-60
2024/02/19 01:36:21;;;;;;;1.00;1.00;;;6.70;99.90;;;;;;4991076;28;20655;-60
2024/02/19 01:38:47;;;;;;;1.50;1.10;;;6.80;99.90;;;;;;4988721;28;20185;-59
2024/02/19 01:41:12;;;;;;;1.03;1.03;;;6.80;99.90;;;;;;4992505;28;20205;-61
2024/02/19 01:43:38;;;;;;;1.00;1.00;;;6.80;99.90;;;;;;4989291;28;20236;-60
2024/02/19 01:46:03;;;;;;;1.17;1.07;;;6.80;99.90;;;;;;4981756;28;20211;-60
2024/02/19 01:48:29;;;;;;;1.20;1.10;;;6.80;99.90;;;;;;4989865;28;20235;-60
2024/02/19 01:50:56;;;;;;;1.23;1.10;;;6.80;99.90;;;;;;4992734;28;20276;-60
2024/02/19 01:53:23;;;;;;;0.90;0.90;;;6.80;99.90;;;;;;4994236;28;20436;-60
2024/02/19 01:55:49;;;;;;;1.00;1.00;;;6.80;99.90;;;;;;4986691;28;20539;-61
2024/02/19 01:58:15;;;;;;;1.27;1.17;;;6.80;99.90;;;;;;4987868;28;20452;-61
2024/02/19 02:00:41;;;;;;;1.00;1.00;;;6.80;99.90;;;;;;4985896;28;20491;-60
2024/02/19 02:03:10;;;;;;;1.00;1.00;;;6.80;99.90;;;;;;4986032;28;20466;-60
2024/02/19 02:05:36;;;;;;;5.47;1.10;;;6.80;99.90;;;;;;4986761;28;21037;-60
2024/02/19 02:08:05;;;;;;;1.30;1.00;;;6.80;99.90;;;;;;4983964;28;20433;-60
2024/02/19 02:10:31;;;;;;;0.90;0.90;;;6.80;99.90;;;;;;4991576;28;20184;-61
2024/02/19 02:12:56;;;;;;;2.60;1.20;;;6.80;99.90;;;;;;4989068;28;20420;-59
2024/02/19 02:15:22;;;;;;;0.93;0.93;;;6.80;99.90;;;;;;4991786;28;20212;-58
2024/02/19 02:17:47;;;;;;;0.90;0.90;;;6.80;99.90;;;;;;4994711;28;20227;-59
2024/02/19 02:20:13;;;;;;;1.77;0.90;;;6.80;99.90;;;;;;4986676;28;20688;-59
2024/02/19 02:22:40;;;;;;;0.93;0.93;;;6.90;99.90;;;;;;4990218;28;20205;-59
2024/02/19 02:25:06;;;;;;;0.90;0.90;;;6.90;99.90;;;;;;4990985;28;20200;-59
2024/02/19 02:27:31;;;;;;;1.00;0.90;;;6.90;99.90;;;;;;4986153;28;20475;-58
2024/02/19 02:29:57;;;;;;;0.73;0.73;;;6.90;99.90;;;;;;4992352;28;20436;-58
2024/02/19 02:32:22;;;;;;;0.90;0.90;;;6.90;99.90;;;;;;4987528;28;20178;-58
2024/02/19 02:34:48;;;;;;;1.20;1.10;;;6.90;99.90;;;;;;4989401;28;20205;-58
2024/02/19 02:37:14;;;;;;;6.33;1.10;;;6.90;99.90;;;;;;4987261;28;20185;-58
2024/02/19 02:39:40;;;;;;;0.80;0.80;;;6.90;99.90;;;;;;4990081;28;20256;-59
2024/02/19 02:42:07;;;;;;;1.20;1.10;;;6.90;99.90;;;;;;4985138;28;20558;-59
2024/02/19 02:44:33;;;;;;;1.13;0.87;;;6.90;99.90;;;;;;4989993;28;20455;-59
2024/02/19 02:46:59;;;;;;;0.90;0.90;;;6.90;99.90;;;;;;4987406;28;20452;-59
2024/02/19 02:49:24;;;;;;;3.63;1.00;;;6.90;99.90;;;;;;4993000;28;20447;-59
2024/02/19 02:51:50;;;;;;;1.00;1.00;;;6.90;99.90;;;;;;4987854;28;20177;-60
2024/02/19 02:54:15;;;;;;;1.20;1.10;;;6.90;99.90;;;;;;4991046;28;20303;-58
2024/02/19 02:56:41;;;;;;;0.80;0.80;;;6.90;99.90;;;;;;4988444;28;20177;-59
2024/02/19 02:59:06;;;;;;;2.10;1.03;;;7.00;99.90;;;;;;4990040;28;20235;-59
2024/02/19 03:01:32;;;;;;;0.90;0.90;;;6.90;99.90;;;;;;4987500;28;20203;-59
2024/02/19 03:03:58;;;;;;;1.07;0.90;;;6.90;99.90;;;;;;4986814;28;20699;-59
2024/02/19 03:06:24;;;;;;;0.83;0.80;;;7.00;99.90;;;;;;4989007;28;20260;-59
2024/02/19 03:08:49;;;;;;;0.80;0.80;;;7.00;99.90;;;;;;4990113;28;20617;-58
2024/02/19 03:11:15;;;;;;;0.87;0.87;;;7.00;99.90;;;;;;4984373;28;20371;-59
2024/02/19 03:13:41;;;;;;;0.80;0.80;;;7.00;99.90;;;;;;4988982;28;20794;-59
2024/02/19 03:16:07;;;;;;;1.00;1.00;;;7.00;99.90;;;;;;4989624;28;20510;-59
2024/02/19 03:18:33;;;;;;;1.57;1.07;;;7.00;99.90;;;;;;4993077;28;20179;-58
2024/02/19 03:21:00;;;;;;;1.10;1.00;;;7.00;99.90;;;;;;4988721;28;20178;-58
2024/02/19 03:23:26;;;;;;;2.93;1.10;;;7.00;99.90;;;;;;4987158;28;20435;-59
2024/02/19 03:25:52;;;;;;;1.20;1.10;;;7.00;99.90;;;;;;4990921;28;20439;-59
2024/02/19 03:28:18;;;;;;;1.20;1.10;;;7.00;99.90;;;;;;4984745;28;20937;-58
2024/02/19 03:30:44;;;;;;;3.57;1.00;;;7.00;99.90;;;;;;4981470;28;20428;-58
2024/02/19 03:33:10;;;;;;;1.00;1.00;;;7.00;99.90;;;;;;4985734;28;20503;-59
2024/02/19 03:35:36;;;;;;;2.07;0.93;;;7.00;99.90;;;;;;4989153;28;20965;-59
2024/02/19 03:38:02;;;;;;;1.20;1.10;;;7.00;99.90;;;;;;4986925;28;20428;-59
2024/02/19 03:40:27;;;;;;;1.10;1.00;;;7.00;99.90;;;;;;4990056;28;20236;-59
2024/02/19 03:42:53;;;;;;;1.40;1.30;;;7.00;99.90;;;;;;4991229;28;20200;-59
2024/02/19 03:45:19;;;;;;;0.80;0.80;;;7.10;99.90;;;;;;4985261;28;20205;-59
2024/02/19 03:47:45;;;;;;;0.97;0.97;;;7.10;99.90;;;;;;4985361;28;20259;-59
2024/02/19 03:50:11;;;;;;;0.80;0.80;;;7.10;99.90;;;;;;4989043;28;20197;-59
2024/02/19 03:52:37;;;;;;;1.20;0.87;;;7.10;99.90;;;;;;4989082;28;20416;-58
2024/02/19 03:55:03;;;;;;;0.80;0.80;;;7.10;99.90;;;;;;4987310;28;20467;-58
2024/02/19 03:57:29;;;;;;;1.40;1.27;;;7.10;99.90;;;;;;4987436;28;20444;-59
2024/02/19 03:59:55;;;;;;;1.00;0.90;;;7.10;99.90;;;;;;4987122;28;20459;-59
2024/02/19 04:02:21;;;;;;;1.30;1.20;;;7.10;99.90;;;;;;4980684;28;20837;-59
2024/02/19 04:04:46;;;;;;;0.90;0.90;;;7.10;99.90;;;;;;4986196;28;20968;-59
2024/02/19 04:07:12;;;;;;;1.10;1.00;;;7.10;99.90;;;;;;4998028;28;20200;-59
2024/02/19 04:09:38;;;;;;;1.10;1.10;;;7.10;99.90;;;;;;4994541;28;20168;-57
2024/02/19 04:12:10;;;;;;;1.40;0.83;;;7.10;99.90;;;;;;4993847;28;20203;-59
2024/02/19 04:14:40;;;;;;;3.03;1.10;;;7.10;99.90;;;;;;4994728;28;20467;-59
2024/02/19 04:17:06;;;;;;;0.90;0.90;;;7.10;99.90;;;;;;4990605;28;21013;-59
2024/02/19 04:19:31;;;;;;;1.10;1.10;;;7.10;99.90;;;;;;4993942;28;20530;-58
2024/02/19 04:21:57;;;;;;;1.23;1.13;;;7.10;99.90;;;;;;4989899;28;20197;-59
2024/02/19 04:24:22;;;;;;;2.67;1.30;;;7.10;99.90;;;;;;4992576;28;20216;-60
2024/02/19 04:26:48;;;;;;;0.90;0.90;;;7.10;99.90;;;;;;4990875;28;20173;-59
2024/02/19 04:29:14;;;;;;;3.00;1.10;;;7.10;99.90;;;;;;4992656;28;20184;-59
2024/02/19 04:31:43;;;;;;;1.33;1.23;;;7.10;99.90;;;;;;4995111;28;20177;-59
2024/02/19 04:34:08;;;;;;;1.33;0.90;;;7.10;99.90;;;;;;4990188;28;20312;-59
2024/02/19 04:36:34;;;;;;;1.20;1.00;;;7.10;99.90;;;;;;4989976;28;21163;-59
2024/02/19 04:39:00;;;;;;;0.93;0.93;;;7.10;99.90;;;;;;4990740;28;20203;-59
2024/02/19 04:41:25;;;;;;;1.10;1.00;;;7.10;99.90;;;;;;4989930;28;20678;-59
2024/02/19 04:43:51;;;;;;;1.00;1.00;;;7.10;99.90;;;;;;4992577;28;20169;-59
2024/02/19 04:46:16;;;;;;;1.00;1.00;;;7.10;99.90;;;;;;4990764;28;20177;-59
2024/02/19 04:48:42;;;;;;;1.30;1.10;;;7.10;99.90;;;;;;4988053;28;20229;-58
2024/02/19 04:51:08;;;;;;;1.47;0.93;;;7.10;99.90;;;;;;4992823;28;20177;-59
2024/02/19 04:53:34;;;;;;;0.90;0.90;;;7.10;99.90;;;;;;4987344;28;20661;-60
2024/02/19 04:55:59;;;;;;;0.90;0.90;;;7.10;99.90;;;;;;4990930;28;20189;-59
2024/02/19 04:58:25;;;;;;;1.30;1.20;;;7.10;99.90;;;;;;4982534;28;20443;-59
2024/02/19 05:00:51;;;;;;;0.90;0.90;;;7.10;99.90;;;;;;4982604;28;20240;-60
2024/02/19 05:03:16;;;;;;;1.30;1.20;;;7.10;99.90;;;;;;4986164;28;20706;-57
2024/02/19 05:05:42;;;;;;;3.53;1.10;;;7.10;99.90;;;;;;4992662;28;20204;-56
2024/02/19 05:08:09;;;;;;;1.00;1.00;;;7.10;99.90;;;;;;4986350;28;20184;-56
2024/02/19 05:10:34;;;;;;;1.10;0.90;;;7.20;99.90;;;;;;4989010;28;20177;-57
2024/02/19 05:13:00;;;;;;;8.97;3.30;;;7.20;99.90;;;;;;5004566;28;20443;-59
2024/02/19 05:15:26;;;;;;;4.97;2.50;;;7.20;99.90;;;;;;4979381;28;20286;-60
2024/02/19 05:17:52;;;;;;;2.37;1.50;;;7.20;99.90;;;;;;4985924;28;20590;-59
2024/02/19 05:20:18;;;;;;;1.60;1.40;;;7.10;99.90;;;;;;4981075;28;20233;-59
2024/02/19 05:22:46;;;;;;;7.43;1.70;;;7.10;99.90;;;;;;4977503;28;20206;-60
2024/02/19 05:25:11;;;;;;;2.00;1.80;;;7.10;99.90;;;;;;4985469;28;20487;-58
2024/02/19 05:27:37;;;;;;;4.20;1.80;;;7.10;99.90;;;;;;4987638;28;21126;-60
2024/02/19 05:30:03;;;;;;;3.50;1.90;;;7.10;99.90;;;;;;4985773;28;20284;-60
2024/02/19 05:32:29;;;;;;;1.50;1.40;;;7.10;99.90;;;;;;4992496;28;20213;-62
2024/02/19 05:34:54;;;;;;;1.50;1.40;;;7.10;99.90;;;;;;4982333;28;21036;-61
2024/02/19 05:37:20;;;;;;;1.53;1.10;;;7.10;99.90;;;;;;4988114;28;20705;-60
2024/02/19 05:39:46;;;;;;;1.20;1.10;;;7.10;99.90;;;;;;4987541;28;20181;-59
2024/02/19 05:42:11;;;;;;;1.80;1.40;;;7.10;99.90;;;;;;4989780;28;20197;-60
2024/02/19 05:44:37;;;;;;;3.00;2.80;;;7.10;99.90;;;;;;4984036;28;20844;-60
2024/02/19 05:47:03;;;;;;;1.30;1.17;;;7.10;99.90;;;;;;4984682;28;20166;-60
2024/02/19 05:49:28;;;;;;;2.43;1.67;;;7.10;99.90;;;;;;4990158;28;20264;-59
2024/02/19 05:51:54;;;;;;;2.07;1.57;;;7.10;99.90;;;;;;4985636;28;20185;-60
2024/02/19 05:54:23;;;;;;;1.10;1.00;;;7.10;99.90;;;;;;4985908;28;20224;-60
2024/02/19 05:56:49;;;;;;;4.90;1.20;;;7.10;99.90;;;;;;4990115;28;20178;-60
2024/02/19 05:59:15;;;;;;;2.53;1.40;;;7.10;99.90;;;;;;4988194;28;20436;-60
2024/02/19 06:01:41;;;;;;;1.30;1.20;;;7.10;99.90;;;;;;4992246;28;20215;-60
2024/02/19 06:04:08;;;;;;;4.00;1.80;;;7.10;99.90;;;;;;4996246;28;20510;-60
2024/02/19 06:06:33;;;;;;;2.60;2.23;;;7.10;99.90;;;;;;4990822;28;20173;-60
2024/02/19 06:09:00;;;;;;;3.90;2.20;;;7.10;99.90;;;;;;4988726;28;22268;-60
2024/02/19 06:11:27;;;;;;;1.70;1.10;;;7.10;99.90;;;;;;4989880;28;20181;-60
2024/02/19 06:13:53;;;;;;;0.90;0.90;;;7.10;99.90;;;;;;4989444;28;20849;-60
2024/02/19 06:16:19;;;;;;;1.30;1.10;;;7.10;99.90;;;;;;4990130;28;20436;-60
2024/02/19 06:18:45;;;;;;;2.50;1.30;;;7.10;99.90;;;;;;4989605;28;20460;-60
2024/02/19 06:21:11;;;;;;;1.30;1.20;;;7.10;99.90;;;;;;4991007;28;20188;-60
2024/02/19 06:23:36;;;;;;;3.53;1.50;;;7.10;99.90;;;;;;4986468;28;20682;-59
2024/02/19 06:26:02;;;;;;;1.47;1.37;;;7.10;99.90;;;;;;4988955;28;20430;-60
2024/02/19 06:28:28;;;;;;;1.80;1.47;;;7.10;99.90;;;;;;4988001;28;20196;-60
2024/02/19 06:30:54;;;;;;;1.40;1.30;;;7.00;99.90;;;;;;4988271;28;20562;-60
2024/02/19 06:33:19;;;;;;;1.20;1.10;;;7.00;99.90;;;;;;4989487;28;20186;-59
2024/02/19 06:35:45;;;;;;;2.07;1.73;;;7.00;99.90;;;;;;4989030;28;20200;-60
2024/02/19 06:38:11;;;;;;;3.30;2.13;;;7.00;99.90;;;;;;4992387;28;20239;-60
2024/02/19 06:40:36;;;;;;;1.33;1.23;;;7.00;99.90;;;;;;4990823;28;20173;-61
2024/02/19 06:43:02;;;;;;;1.07;1.00;;;7.00;99.90;;;;;;4994368;28;20204;-59
2024/02/19 06:45:28;;;;;;;1.17;0.97;;;7.10;99.90;;;;;;4986655;28;20292;-60
2024/02/19 06:47:53;;;;;;;4.07;1.30;;;7.00;99.90;;;;;;4990692;28;20259;-60
2024/02/19 06:50:19;;;;;;;6.10;1.13;;;7.00;99.90;;;;;;4987265;28;20188;-60
2024/02/19 06:52:47;;;;;;;1.00;1.00;;;7.10;99.90;;;;;;4991101;28;20663;-61
2024/02/19 06:55:14;;;;;;;3.13;1.40;;;7.00;99.90;;;;;;4993051;28;20216;-60
2024/02/19 06:57:40;;;;;;;2.10;1.70;;;7.00;99.90;;;;;;4988054;28;20438;-60
2024/02/19 07:00:07;;;;;;;2.10;1.77;;;7.00;99.90;;;;;;4989088;28;20527;-60
2024/02/19 07:02:33;;;;;;;4.30;3.10;;;7.00;99.90;;;;;;4988973;28;20885;-59
2024/02/19 07:04:59;;;;;;;2.90;2.10;;;7.00;99.90;;;;;;4983700;28;20549;-61
2024/02/19 07:07:25;;;;;;;8.33;2.40;;;7.00;99.90;;;;;;4980544;28;20276;-60
2024/02/19 07:09:51;;;;;;;3.90;2.70;;;7.00;99.90;;;;;;4986264;28;20197;-59
2024/02/19 07:12:17;;;;;;;4.40;2.23;;;7.00;99.90;;;;;;4993089;28;20478;-59
2024/02/19 07:14:43;;;;;;;2.70;2.50;;;7.00;99.90;;;;;;4988058;28;20453;-60
2024/02/19 07:17:10;;;;;;;3.17;1.90;;;7.00;99.90;;;;;;4986079;28;20651;-61
2024/02/19 07:19:35;;;;;;;5.30;2.50;;;7.10;99.90;;;;;;4989865;28;20181;-62
2024/02/19 07:22:01;;;;;;;5.53;2.40;;;7.10;99.90;;;;;;4986524;28;20462;-60
2024/02/19 07:24:28;;;;;;;4.37;3.33;;;7.10;99.90;;;;;;4990696;28;20254;-60
2024/02/19 07:26:54;;;;;;;5.00;2.70;;;7.10;99.90;;;;;;4984898;28;20424;-60
2024/02/19 07:29:22;;;;;;;8.50;3.27;;;7.20;99.90;;;;;;4989251;28;20946;-61
2024/02/19 07:31:47;;;;;;;4.70;2.50;;;7.20;99.90;;;;;;4991635;28;20181;-60
2024/02/19 07:34:13;;;;;;;3.80;3.17;;;7.20;99.90;;;;;;4993861;28;21513;-60
2024/02/19 07:36:39;;;;;;;3.37;2.30;;;7.20;99.90;;;;;;4978958;28;20201;-60
2024/02/19 07:39:05;;;;;;;4.60;3.10;;;7.20;99.90;;;;;;4994340;28;20699;-60
2024/02/19 07:41:30;;;;;;;3.30;2.73;;;7.30;99.90;;;;;;4991458;28;20691;-60
2024/02/19 07:43:56;;;;;;;7.60;3.23;;;7.30;99.90;;;;;;4985900;28;20500;-60
2024/02/19 07:46:22;;;;;;;2.93;2.47;;;7.40;99.90;;;;;;4991538;28;20211;-60
2024/02/19 07:48:48;;;;;;;7.27;3.17;;;7.40;99.90;;;;;;4987302;28;20764;-59
2024/02/19 07:51:14;;;;;;;4.10;2.93;;;7.40;99.90;;;;;;4985836;28;20185;-60
2024/02/19 07:53:42;;;;;;;4.80;2.83;;;7.40;99.90;;;;;;4991462;28;20446;-59
2024/02/19 07:56:07;;;;;;;4.93;3.00;;;7.50;99.90;;;;;;4989997;28;20431;-59
2024/02/19 07:58:34;;;;;;;7.00;4.10;;;7.50;99.90;;;;;;4989632;28;20421;-59
2024/02/19 08:01:03;;;;;;;3.40;2.60;;;7.50;99.90;;;;;;4984142;28;20184;-59
2024/02/19 08:03:28;;;;;;;5.50;2.53;;;7.60;99.90;;;;;;4985539;28;20472;-60
2024/02/19 08:05:54;;;;;;;7.77;3.77;;;7.60;99.90;;;;;;4986009;28;20532;-60
2024/02/19 08:08:21;;;;;;;3.90;2.83;;;7.60;99.90;;;;;;4986280;28;20166;-60
2024/02/19 08:10:47;;;;;;;4.50;2.67;;;7.70;99.90;;;;;;4989725;28;20253;-59
2024/02/19 08:13:12;;;;;;;3.37;3.07;;;7.70;99.90;;;;;;4992735;28;20461;-60
2024/02/19 08:15:40;;;;;;;6.00;2.50;;;7.80;99.90;;;;;;4991295;28;20969;-59
2024/02/19 08:18:09;;;;;;;3.93;2.93;;;7.80;99.90;;;;;;4979765;28;20196;-61
2024/02/19 08:20:36;;;;;;;5.80;3.20;;;7.80;99.90;;;;;;4984727;28;20494;-60
2024/02/19 08:23:02;;;;;;;3.70;3.03;;;7.80;99.90;;;;;;4992652;28;20462;-59
2024/02/19 08:25:28;;;;;;;9.30;3.70;;;7.90;99.90;;;;;;4989027;28;20440;-59
2024/02/19 08:27:53;;;;;;;3.07;2.80;;;7.90;99.90;;;;;;4991900;28;20176;-60
2024/02/19 08:30:19;;;;;;;3.80;2.60;;;8.00;99.90;;;;;;4985945;28;20749;-61
2024/02/19 08:32:45;;;;;;;8.47;3.27;;;8.00;99.90;;;;;;4991014;28;20912;-60
2024/02/19 08:35:11;;;;;;;6.03;2.90;;;8.10;99.90;;;;;;4985427;28;20201;-59
2024/02/19 08:37:36;;;;;;;3.57;3.03;;;8.10;99.90;;;;;;4990294;28;20254;-59
2024/02/19 08:40:03;;;;;;;8.47;2.63;;;8.20;99.90;;;;;;4985833;28;20217;-60
2024/02/19 08:42:28;;;;;;;3.77;3.03;;;8.20;99.90;;;;;;4994711;28;20205;-60
2024/02/19 08:44:54;;;;;;;2.80;2.60;;;8.30;99.90;;;;;;4991850;28;20578;-60
2024/02/19 08:47:20;;;;;;;2.83;2.53;;;8.30;99.90;;;;;;4994023;28;20181;-60
2024/02/19 08:49:45;;;;;;;8.53;2.80;;;8.30;99.90;;;;;;4983898;28;20174;-60
2024/02/19 08:52:12;;;;;;;9.50;2.47;;;8.30;99.90;;;;;;4997018;28;20424;-60
2024/02/19 08:54:38;;;;;;;4.57;2.80;;;8.30;99.90;;;;;;4995641;28;20223;-60
2024/02/19 08:57:05;;;;;;;4.37;2.50;;;8.30;99.90;;;;;;4995343;28;20491;-58
2024/02/19 08:59:31;;;;;;;7.47;2.90;;;8.30;99.90;;;;;;4996046;28;20443;-60
2024/02/19 09:01:57;;;;;;;3.83;2.47;;;8.30;99.90;;;;;;4994184;28;20521;-60
2024/02/19 09:04:23;;;;;;;4.60;2.80;;;8.30;99.90;;;;;;4992518;28;20296;-60
2024/02/19 09:06:49;;;;;;;9.10;2.33;;;8.30;99.90;;;;;;4990973;28;20437;-60
2024/02/19 09:09:15;;;;;;;3.10;2.40;;;8.20;99.90;;;;;;4984167;28;20482;-60
2024/02/19 09:11:41;;;;;;;3.37;2.40;;;8.20;99.90;;;;;;4989381;28;20784;-60
2024/02/19 09:14:06;;;;;;;3.20;2.20;;;8.10;99.90;;;;;;4993779;28;20466;-60
2024/02/19 09:16:32;;;;;;;6.97;2.70;;;8.10;99.90;;;;;;4993113;28;20256;-61
2024/02/19 09:18:58;;;;;;;5.07;2.80;;;8.10;99.90;;;;;;4992625;28;20177;-59
2024/02/19 09:21:24;;;;;;;3.80;2.40;;;8.20;99.90;;;;;;4993355;28;20662;-59
2024/02/19 09:23:50;;;;;;;4.80;2.80;;;8.20;99.90;;;;;;4995981;28;20435;-59
2024/02/19 09:26:16;;;;;;;4.93;2.97;;;8.30;99.90;;;;;;4988139;28;20201;-59
2024/02/19 09:28:43;;;;;;;9.93;2.87;;;8.30;99.90;;;;;;4989458;28;20269;-60
2024/02/19 09:31:09;;;;;;;3.77;2.37;;;8.30;99.90;;;;;;4991934;28;20174;-60
2024/02/19 09:33:35;;;;;;;4.37;2.73;;;8.40;99.90;;;;;;4996174;28;20434;-60
2024/02/19 09:36:01;;;;;;;4.80;2.73;;;8.40;99.90;;;;;;4993438;28;20204;-59
2024/02/19 09:38:27;;;;;;;6.70;3.10;;;8.40;99.90;;;;;;4993674;28;20195;-59
2024/02/19 09:40:53;;;;;;;6.50;2.87;;;8.40;99.90;;;;;;4991268;28;20432;-59
2024/02/19 09:43:22;;;;;;;10.67;3.33;;;8.50;99.90;;;;;;4987149;28;20567;-59
2024/02/19 09:45:50;;;;;;;7.63;3.00;;;8.50;99.90;;;;;;4992041;28;20188;-60
2024/02/19 09:48:20;;;;;;;6.87;3.10;;;8.50;99.90;;;;;;4992837;28;20447;-59
2024/02/19 09:50:48;;;;;;;4.80;3.10;;;8.40;99.90;;;;;;4992172;28;20428;-59
2024/02/19 09:53:22;;;;;;;5.63;2.80;;;8.30;99.90;;;;;;4994162;28;20463;-59
2024/02/19 09:55:49;;;;;;;4.73;2.97;;;8.30;99.90;;;;;;4991646;28;20998;-60
2024/02/19 09:58:15;;;;;;;5.23;2.80;;;8.20;99.90;;;;;;4987607;28;20472;-59
2024/02/19 10:00:41;;;;;;;6.40;3.33;;;8.30;99.90;;;;;;4989005;28;20416;-59
2024/02/19 10:03:07;;;;;;;5.03;3.07;;;8.30;99.90;;;;;;4987733;28;20543;-59
2024/02/19 10:05:33;;;;;;;13.03;3.80;;;8.30;99.90;;;;;;4988813;28;20217;-59
2024/02/19 10:08:04;;;;;;;6.53;3.70;;;8.40;99.90;;;;;;4989359;28;20440;-60
2024/02/19 10:10:32;;;;;;;7.30;3.53;;;8.60;99.90;;;;;;4996580;28;20404;-60
2024/02/19 10:12:58;;;;;;;3.10;2.77;;;8.80;99.90;;;;;;4988792;28;20807;-59
2024/02/19 10:15:23;;;;;;;5.90;3.10;;;8.90;99.90;;;;;;4991208;28;20455;-61
2024/02/19 10:17:49;;;;;;;4.90;3.07;;;8.90;99.90;;;;;;4990334;28;20203;-59
2024/02/19 10:20:15;;;;;;;9.40;3.63;;;8.90;99.90;;;;;;4990851;28;20181;-60
2024/02/19 10:22:40;;;;;;;6.20;3.63;;;8.90;99.90;;;;;;4991925;28;20208;-60
2024/02/19 10:25:11;;;;;;;8.00;3.40;;;8.80;99.90;;;;;;4988933;28;20614;-59
2024/02/19 10:27:38;;;;;;;11.77;3.63;;;8.80;99.90;;;;;;4991352;28;20180;-60
2024/02/19 10:30:12;;;;;;;5.73;3.30;;;8.70;99.90;;;;;;4996165;28;20412;-59
2024/02/19 10:32:41;;;;;;;11.97;3.33;;;8.70;99.90;;;;;;4987089;28;20442;-59
2024/02/19 10:35:07;;;;;;;6.60;3.40;;;8.70;99.90;;;;;;4993676;28;20436;-60
2024/02/19 10:37:33;;;;;;;6.03;3.17;;;8.70;99.90;;;;;;4989395;28;20551;-59
2024/02/19 10:39:59;;;;;;;7.17;3.87;;;8.80;99.90;;;;;;4986323;28;20519;-60
2024/02/19 10:42:25;;;;;;;10.67;3.10;;;8.80;99.90;;;;;;4989387;28;20247;-60
2024/02/19 10:44:53;;;;;;;6.13;2.93;;;8.80;99.90;;;;;;4994154;28;20436;-60
2024/02/19 10:47:20;;;;;;;7.43;3.73;;;8.80;99.90;;;;;;4990585;28;20439;-60
2024/02/19 10:49:49;;;;;;;10.17;4.40;;;8.80;99.90;;;;;;4984577;28;20441;-59
2024/02/19 10:52:15;;;;;;;8.50;3.73;;;8.70;99.90;;;;;;4991908;28;20416;-59
2024/02/19 10:54:42;;;;;;;7.90;3.80;;;8.60;99.90;;;;;;4989604;28;20978;-60
2024/02/19 10:57:08;;;;;;;8.73;3.03;;;8.50;99.90;;;;;;4986373;28;20185;-60
2024/02/19 10:59:35;;;;;;;9.07;3.40;;;8.30;99.90;;;;;;4991711;28;20433;-60
2024/02/19 11:02:09;;;;;;;18.40;2.80;;;8.20;99.90;;;;;;4985751;28;20603;-59
2024/02/19 11:04:34;;;;;;;9.47;3.43;;;8.10;99.90;;;;;;4992779;28;21175;-58
2024/02/19 11:07:03;;;;;;;8.27;2.43;;;8.10;99.90;;;;;;4984897;28;20428;-60
2024/02/19 11:09:33;;;;;;;5.73;3.10;;;8.00;99.90;;;;;;4988299;28;20181;-59
2024/02/19 11:12:00;;;;;;;6.60;2.67;;;8.00;99.90;;;;;;4988181;28;20431;-59
2024/02/19 11:14:32;;;;;;;7.63;3.10;;;7.90;99.90;;;;;;4983127;28;20463;-60
2024/02/19 11:16:59;;;;;;;9.60;3.77;;;7.90;99.90;;;;;;4989450;28;20566;-59
2024/02/19 11:19:25;;;;;;;14.40;2.77;;;7.90;99.90;;;;;;4987051;28;20432;-60
2024/02/19 11:22:05;;;;;;;7.43;3.33;;;7.90;99.90;;;;;;4986377;28;20525;-59
2024/02/19 11:24:31;;;;;;;8.93;3.20;;;7.90;99.90;;;;;;4985226;28;20455;-59
2024/02/19 11:26:57;;;;;;;10.63;3.73;;;8.00;99.90;;;;;;4990744;28;20433;-59
2024/02/19 11:29:24;;;;;;;9.67;3.27;;;8.00;99.90;;;;;;4989880;28;20206;-60
2024/02/19 11:32:05;;;;;;;6.80;2.87;;;8.10;99.90;;;;;;4987590;28;20184;-59
2024/02/19 11:34:33;;;;;;;7.00;3.40;;;8.10;99.90;;;;;;4985668;28;20830;-59
2024/02/19 11:37:10;;;;;;;5.67;3.30;;;8.10;99.90;;;;;;4986563;28;20443;-59
2024/02/19 11:39:36;;;;;;;4.93;3.00;;;8.20;99.90;;;;;;4987364;28;20436;-59
2024/02/19 11:42:03;;;;;;;4.50;2.67;;;8.30;99.90;;;;;;4990461;28;20471;-59
2024/02/19 11:44:30;;;;;;;4.47;3.13;;;8.30;99.90;;;;;;4986447;28;20606;-60
2024/02/19 11:46:57;;;;;;;11.77;4.10;;;8.50;99.90;;;;;;4993995;28;20483;-59
2024/02/19 11:49:23;;;;;;;6.53;3.40;;;8.80;99.90;;;;;;4995745;28;20428;-61
2024/02/19 11:51:49;;;;;;;10.23;4.40;;;9.10;99.90;;;;;;4983872;28;20432;-60
2024/02/19 11:54:15;;;;;;;7.70;3.53;;;9.40;99.90;;;;;;4993593;28;20212;-59
2024/02/19 11:56:47;;;;;;;6.07;2.80;;;9.40;99.90;;;;;;4989582;28;20484;-60
2024/02/19 11:59:14;;;;;;;10.93;2.83;;;9.30;99.90;;;;;;4981551;28;20444;-59
2024/02/19 12:01:39;;;;;;;5.90;2.93;;;9.10;99.90;;;;;;4992190;28;20456;-60
2024/02/19 12:04:06;;;;;;;3.77;2.50;;;9.10;99.90;;;;;;4996192;28;20450;-60
2024/02/19 12:06:39;;;;;;;9.50;3.27;;;9.00;99.90;;;;;;4987124;28;20173;-56
2024/02/19 12:09:07;;;;;;;9.53;2.70;;;8.90;99.90;;;;;;4990025;28;20440;-56
2024/02/19 12:11:33;;;;;;;6.30;3.00;;;8.80;99.90;;;;;;4993743;28;20431;-56
2024/02/19 12:13:59;;;;;;;9.90;2.67;;;8.70;99.90;;;;;;4990012;28;20428;-56
2024/02/19 12:16:27;;;;;;;14.63;4.17;;;8.70;99.90;;;;;;4989971;28;20424;-56
2024/02/19 12:18:54;;;;;;;6.93;3.30;;;8.80;99.90;;;;;;4989634;28;20492;-56
2024/02/19 12:21:20;;;;;;;10.43;3.60;;;8.90;99.90;;;;;;4991204;28;20528;-57
2024/02/19 12:23:49;;;;;;;6.87;2.83;;;9.00;99.90;;;;;;4993954;28;20613;-55
2024/02/19 12:26:14;;;;;;;6.80;3.20;;;9.20;99.90;;;;;;4991317;28;20435;-56
2024/02/19 12:28:40;;;;;;;9.00;2.67;;;10.10;99.90;;;;;;4991440;28;20463;-57
2024/02/19 12:31:06;;;;;;;4.63;2.63;;;11.10;99.90;;;;;;4995441;28;20204;-57
2024/02/19 12:33:32;;;;;;;8.77;2.87;;;12.00;99.90;;;;;;4994281;28;20184;-56
2024/02/19 12:35:57;;;;;;;4.33;2.30;;;12.80;91.30;;;;;;4991903;28;20267;-57
2024/02/19 12:38:23;;;;;;;6.73;2.60;;;12.90;72.50;;;;;;4992893;28;20197;-55
2024/02/19 12:40:48;;;;;;;4.53;2.77;;;12.40;74.70;;;;;;4997123;28;20264;-57
2024/02/19 12:43:14;;;;;;;8.90;2.73;;;11.80;82.60;;;;;;4992283;28;20219;-57
2024/02/19 12:45:40;;;;;;;10.67;2.67;;;11.10;91.20;;;;;;4995654;28;20197;-55
2024/02/19 12:48:06;;;;;;;7.37;2.80;;;10.60;95.10;;;;;;4994658;28;20173;-56
2024/02/19 12:50:32;;;;;;;10.80;2.90;;;10.30;98.50;;;;;;4990160;28;20840;-55